Time,TemperatureF,DewpointF,PressureIn,WindDirection,WindDirectionDegrees,WindSpeedMPH,WindSpeedGustMPH,Humidity,HourlyPrecipIn,Conditions,Clouds,dailyrainin,SoftwareType,DateUTC
2013-06-17 00:01:00,54.5,40.8,29.14,SSE,158,0.0,0.0,60,0.00,,,0.38,meteohub,2013-06-17 04:01:00,
2013-06-17 00:06:00,54.5,40.8,29.14,South,180,0.0,0.0,60,0.00,,,0.00,meteohub,2013-06-17 04:06:00,
2013-06-17 00:11:00,54.3,40.8,29.14,South,180,0.0,0.0,60,0.00,,,0.00,meteohub,2013-06-17 04:11:00,
2013-06-17 00:16:00,54.1,40.6,29.14,NE,45,0.0,0.0,60,0.00,,,0.00,meteohub,2013-06-17 04:16:00,
2013-06-17 00:21:00,54.1,40.6,29.14,NE,45,0.0,0.0,60,0.00,,,0.00,meteohub,2013-06-17 04:21:00,
2013-06-17 00:26:00,54.1,40.6,29.14,East,90,0.0,0.0,60,0.00,,,0.00,meteohub,2013-06-17 04:26:00,
2013-06-17 00:31:00,54.3,40.3,29.14,NE,45,0.0,0.0,59,0.00,,,0.00,meteohub,2013-06-17 04:31:00,
2013-06-17 00:36:00,54.3,40.3,29.14,North,0,0.0,0.0,59,0.00,,,0.00,meteohub,2013-06-17 04:36:00,
2013-06-17 00:41:00,54.3,40.3,29.14,NNE,23,0.0,0.0,59,0.00,,,0.00,meteohub,2013-06-17 04:41:00,
2013-06-17 00:46:00,54.3,40.3,29.14,NNE,23,0.0,0.0,59,0.00,,,0.00,meteohub,2013-06-17 04:46:00,
2013-06-17 00:51:00,54.3,40.3,29.14,East,90,0.0,0.0,59,0.00,,,0.00,meteohub,2013-06-17 04:51:00,
2013-06-17 00:56:00,54.3,40.3,29.14,NE,45,0.0,0.0,59,0.00,,,0.00,meteohub,2013-06-17 04:56:00,
2013-06-17 01:01:00,54.1,40.1,29.14,SSE,158,0.0,0.0,59,0.00,,,0.00,meteohub,2013-06-17 05:01:00,
2013-06-17 01:06:00,54.1,40.1,29.14,North,0,0.0,0.0,59,0.00,,,0.00,meteohub,2013-06-17 05:06:00,
2013-06-17 01:11:00,54.1,40.1,29.14,NW,315,0.0,0.0,59,0.00,,,0.00,meteohub,2013-06-17 05:11:00,
2013-06-17 01:16:00,54.1,40.1,29.14,SSW,203,0.0,0.0,59,0.00,,,0.00,meteohub,2013-06-17 05:16:00,
2013-06-17 01:21:00,54.3,40.3,29.14,NNE,23,0.0,0.0,59,0.00,,,0.00,meteohub,2013-06-17 05:21:00,
2013-06-17 01:26:00,54.5,40.1,29.14,NE,45,0.0,0.0,58,0.00,,,0.00,meteohub,2013-06-17 05:26:00,
2013-06-17 01:31:00,54.5,40.1,29.14,NE,45,0.0,0.0,58,0.00,,,0.00,meteohub,2013-06-17 05:31:00,
2013-06-17 01:36:00,54.9,40.3,29.14,NE,45,0.0,0.0,58,0.00,,,0.00,meteohub,2013-06-17 05:36:00,
2013-06-17 01:41:00,55.0,40.5,29.14,NNE,23,0.0,0.0,58,0.00,,,0.00,meteohub,2013-06-17 05:41:00,
2013-06-17 01:46:00,55.2,40.6,29.14,North,0,0.0,0.0,58,0.00,,,0.00,meteohub,2013-06-17 05:46:00,
2013-06-17 01:51:00,55.2,40.3,29.14,NNE,23,0.0,0.0,57,0.00,,,0.00,meteohub,2013-06-17 05:51:00,
2013-06-17 01:56:00,55.4,40.5,29.14,NNE,23,0.0,0.0,57,0.00,,,0.00,meteohub,2013-06-17 05:56:00,
2013-06-17 02:01:00,55.6,40.6,29.14,NNE,23,0.0,0.0,57,0.00,,,0.00,meteohub,2013-06-17 06:01:00,
2013-06-17 02:06:00,55.6,40.6,29.14,NE,45,0.0,0.0,57,0.00,,,0.00,meteohub,2013-06-17 06:06:00,
2013-06-17 02:11:00,55.6,40.6,29.14,NNE,23,0.0,0.0,57,0.00,,,0.00,meteohub,2013-06-17 06:11:00,
2013-06-17 02:16:00,55.6,40.6,29.14,NNE,23,0.0,0.0,57,0.00,,,0.00,meteohub,2013-06-17 06:16:00,
2013-06-17 02:22:00,55.8,40.8,29.14,NNE,23,0.0,0.0,57,0.00,,,0.00,meteohub,2013-06-17 06:22:00,
2013-06-17 02:27:00,55.8,40.8,29.14,NNE,23,0.0,0.0,57,0.00,,,0.00,meteohub,2013-06-17 06:27:00,
2013-06-17 02:32:00,55.8,40.8,29.14,NNE,23,0.0,0.0,57,0.00,,,0.00,meteohub,2013-06-17 06:32:00,
2013-06-17 02:37:00,55.6,40.6,29.14,North,0,0.0,0.0,57,0.00,,,0.00,meteohub,2013-06-17 06:37:00,
2013-06-17 02:42:00,55.6,40.6,29.14,NNE,23,0.0,0.0,57,0.00,,,0.00,meteohub,2013-06-17 06:42:00,
2013-06-17 02:47:00,55.6,40.6,29.14,NNE,23,0.0,0.0,57,0.00,,,0.00,meteohub,2013-06-17 06:47:00,
2013-06-17 02:52:00,55.4,40.5,29.14,WNW,293,0.0,0.0,57,0.00,,,0.00,meteohub,2013-06-17 06:52:00,
2013-06-17 02:57:00,55.4,40.5,29.14,SSW,203,0.0,0.0,57,0.00,,,0.00,meteohub,2013-06-17 06:57:00,
2013-06-17 03:02:00,55.4,40.5,29.14,East,90,0.0,0.0,57,0.00,,,0.00,meteohub,2013-06-17 07:02:00,
2013-06-17 03:07:00,55.2,40.3,29.14,East,90,0.0,0.0,57,0.00,,,0.00,meteohub,2013-06-17 07:07:00,
2013-06-17 03:12:00,55.2,40.3,29.14,NNE,23,0.0,2.0,57,0.00,,,0.00,meteohub,2013-06-17 07:12:00,
2013-06-17 03:17:00,55.2,40.3,29.14,WSW,248,0.0,2.0,57,0.00,,,0.00,meteohub,2013-06-17 07:17:00,
2013-06-17 03:22:00,55.0,40.1,29.14,WNW,293,0.0,2.0,57,0.00,,,0.00,meteohub,2013-06-17 07:22:00,
2013-06-17 03:27:00,54.7,39.7,29.14,NW,315,0.0,2.0,57,0.00,,,0.00,meteohub,2013-06-17 07:27:00,
2013-06-17 03:32:00,54.5,39.6,29.14,WSW,248,0.0,2.0,57,0.00,,,0.00,meteohub,2013-06-17 07:32:00,
2013-06-17 03:37:00,54.3,39.9,29.14,WNW,293,0.0,2.0,58,0.00,,,0.00,meteohub,2013-06-17 07:37:00,
2013-06-17 03:42:00,54.1,39.7,29.14,North,0,0.0,2.0,58,0.00,,,0.00,meteohub,2013-06-17 07:42:00,
2013-06-17 03:47:00,54.0,39.6,29.14,SSW,203,0.0,2.0,58,0.00,,,0.00,meteohub,2013-06-17 07:47:00,
2013-06-17 03:52:00,53.8,39.4,29.14,SW,225,2.0,2.0,58,0.00,,,0.00,meteohub,2013-06-17 07:52:00,
2013-06-17 03:57:00,53.6,39.2,29.14,SW,225,0.0,2.0,58,0.00,,,0.00,meteohub,2013-06-17 07:57:00,
2013-06-17 04:02:00,53.4,39.0,29.14,West,270,0.0,2.0,58,0.00,,,0.00,meteohub,2013-06-17 08:02:00,
2013-06-17 04:07:00,53.2,38.8,29.14,NNE,23,0.0,2.0,58,0.00,,,0.00,meteohub,2013-06-17 08:07:00,
2013-06-17 04:12:00,53.1,38.7,29.14,NNE,23,0.0,0.0,58,0.00,,,0.00,meteohub,2013-06-17 08:12:00,
2013-06-17 04:17:00,52.9,38.5,29.14,North,0,0.0,0.0,58,0.00,,,0.00,meteohub,2013-06-17 08:17:00,
2013-06-17 04:22:00,52.5,38.1,29.14,NNE,23,0.0,0.0,58,0.00,,,0.00,meteohub,2013-06-17 08:22:00,
2013-06-17 04:27:00,52.3,37.9,29.14,WNW,293,0.0,0.0,58,0.00,,,0.00,meteohub,2013-06-17 08:27:00,
2013-06-17 04:32:00,52.2,37.8,29.14,NE,45,0.0,0.0,58,0.00,,,0.00,meteohub,2013-06-17 08:32:00,
2013-06-17 04:37:00,52.0,37.6,29.14,NNE,23,0.0,0.0,58,0.00,,,0.00,meteohub,2013-06-17 08:37:00,
2013-06-17 04:42:00,52.0,37.6,29.14,North,0,0.0,0.0,58,0.00,,,0.00,meteohub,2013-06-17 08:42:00,
2013-06-17 04:47:00,52.0,37.6,29.14,NNE,23,0.0,0.0,58,0.00,,,0.00,meteohub,2013-06-17 08:47:00,
2013-06-17 04:52:00,51.8,37.6,29.14,NNE,23,0.0,0.0,58,0.00,,,0.00,meteohub,2013-06-17 08:52:00,
2013-06-17 04:57:00,51.8,37.6,29.14,NNE,23,0.0,0.0,58,0.00,,,0.00,meteohub,2013-06-17 08:57:00,
2013-06-17 05:02:00,52.0,37.6,29.14,South,180,0.0,0.0,58,0.00,,,0.00,meteohub,2013-06-17 09:02:00,
2013-06-17 05:07:00,52.2,37.4,29.14,SSW,203,0.0,0.0,57,0.00,,,0.00,meteohub,2013-06-17 09:07:00,
2013-06-17 05:12:00,52.3,37.6,29.14,WNW,293,0.0,0.0,57,0.00,,,0.00,meteohub,2013-06-17 09:12:00,
2013-06-17 05:17:00,52.3,37.6,29.14,WNW,293,0.0,0.0,57,0.00,,,0.00,meteohub,2013-06-17 09:17:00,
2013-06-17 05:22:00,52.5,38.1,29.14,WSW,248,0.0,0.0,58,0.00,,,0.00,meteohub,2013-06-17 09:22:00,
2013-06-17 05:27:00,52.5,38.1,29.14,ESE,113,0.0,0.0,58,0.00,,,0.00,meteohub,2013-06-17 09:27:00,
2013-06-17 05:32:00,52.5,38.1,29.14,East,90,0.0,0.0,58,0.00,,,0.00,meteohub,2013-06-17 09:32:00,
2013-06-17 05:37:00,52.7,38.3,29.14,ENE,68,0.0,0.0,58,0.00,,,0.00,meteohub,2013-06-17 09:37:00,
2013-06-17 05:42:00,52.5,38.1,29.14,NE,45,0.0,0.0,58,0.00,,,0.00,meteohub,2013-06-17 09:42:00,
2013-06-17 05:47:00,52.7,38.3,29.14,East,90,0.0,0.0,58,0.00,,,0.00,meteohub,2013-06-17 09:47:00,
2013-06-17 05:52:00,52.9,38.1,29.14,NNE,23,0.0,0.0,57,0.00,,,0.00,meteohub,2013-06-17 09:52:00,
2013-06-17 05:57:00,52.9,38.1,29.14,NE,45,0.0,0.0,57,0.00,,,0.00,meteohub,2013-06-17 09:57:00,
2013-06-17 06:02:00,53.1,38.3,29.14,SSE,158,0.0,0.0,57,0.00,,,0.00,meteohub,2013-06-17 10:02:00,
2013-06-17 06:07:00,53.1,38.3,29.14,SSE,158,0.0,0.0,57,0.00,,,0.00,meteohub,2013-06-17 10:07:00,
2013-06-17 06:12:00,53.2,38.5,29.14,SSE,158,0.0,0.0,57,0.00,,,0.00,meteohub,2013-06-17 10:12:00,
2013-06-17 06:17:00,53.4,38.5,29.14,NE,45,0.0,0.0,57,0.00,,,0.00,meteohub,2013-06-17 10:17:00,
2013-06-17 06:22:00,53.4,38.5,29.14,SE,135,0.0,0.0,57,0.00,,,0.00,meteohub,2013-06-17 10:22:00,
2013-06-17 06:27:00,53.6,38.7,29.14,ENE,68,0.0,0.0,57,0.00,,,0.00,meteohub,2013-06-17 10:27:00,
2013-06-17 06:32:00,53.6,38.7,29.14,East,90,0.0,0.0,57,0.00,,,0.00,meteohub,2013-06-17 10:32:00,
2013-06-17 06:37:00,53.8,38.8,29.14,NE,45,0.0,0.0,57,0.00,,,0.00,meteohub,2013-06-17 10:37:00,
2013-06-17 06:42:00,53.8,38.8,29.14,NNE,23,0.0,0.0,57,0.00,,,0.00,meteohub,2013-06-17 10:42:00,
2013-06-17 06:47:00,54.0,38.7,29.14,NE,45,0.0,0.0,56,0.00,,,0.00,meteohub,2013-06-17 10:47:00,
2013-06-17 06:52:00,54.1,38.8,29.14,NE,45,0.0,0.0,56,0.00,,,0.00,meteohub,2013-06-17 10:52:00,
2013-06-17 06:57:00,54.1,38.8,29.14,ESE,113,0.0,0.0,56,0.00,,,0.00,meteohub,2013-06-17 10:57:00,
2013-06-17 07:02:00,54.0,38.7,29.14,NE,45,0.0,0.0,56,0.00,,,0.00,meteohub,2013-06-17 11:02:00,
2013-06-17 07:07:00,54.1,38.8,29.14,NNE,23,0.0,0.0,56,0.00,,,0.00,meteohub,2013-06-17 11:07:00,
2013-06-17 07:12:00,54.1,38.8,29.14,North,0,0.0,0.0,56,0.00,,,0.00,meteohub,2013-06-17 11:12:00,
2013-06-17 07:17:00,54.1,38.8,29.14,North,0,0.0,0.0,56,0.00,,,0.00,meteohub,2013-06-17 11:17:00,
2013-06-17 07:22:00,54.5,39.2,29.14,SW,225,0.0,0.0,56,0.00,,,0.00,meteohub,2013-06-17 11:22:00,
2013-06-17 07:27:00,54.5,39.2,29.14,NNW,338,0.0,0.0,56,0.00,,,0.00,meteohub,2013-06-17 11:27:00,
2013-06-17 07:32:00,54.7,39.4,29.14,South,180,0.0,0.0,56,0.00,,,0.00,meteohub,2013-06-17 11:32:00,
2013-06-17 07:37:00,54.9,39.4,29.14,East,90,0.0,0.0,56,0.00,,,0.00,meteohub,2013-06-17 11:37:00,
2013-06-17 07:42:00,54.9,39.4,29.14,SSW,203,0.0,0.0,56,0.00,,,0.00,meteohub,2013-06-17 11:42:00,
2013-06-17 07:47:00,54.9,39.4,29.14,NE,45,0.0,0.0,56,0.00,,,0.00,meteohub,2013-06-17 11:47:00,
2013-06-17 07:52:00,54.9,39.4,29.14,SSW,203,0.0,0.0,56,0.00,,,0.00,meteohub,2013-06-17 11:52:00,
2013-06-17 07:57:00,54.9,39.4,29.14,WNW,293,0.0,0.0,56,0.00,,,0.00,meteohub,2013-06-17 11:57:00,
2013-06-17 08:02:00,54.9,39.4,29.14,WSW,248,0.0,0.0,56,0.00,,,0.00,meteohub,2013-06-17 12:02:00,
2013-06-17 08:07:00,55.0,39.6,29.14,WNW,293,0.0,0.0,56,0.00,,,0.00,meteohub,2013-06-17 12:07:00,
2013-06-17 08:12:00,55.2,39.7,29.14,North,0,0.0,0.0,56,0.00,,,0.00,meteohub,2013-06-17 12:12:00,
2013-06-17 08:18:00,55.4,39.9,29.14,SW,225,3.0,0.0,56,0.00,,,0.00,meteohub,2013-06-17 12:18:00,
2013-06-17 08:22:00,55.8,40.3,29.14,SSW,203,0.0,3.0,56,0.00,,,0.00,meteohub,2013-06-17 12:22:00,
2013-06-17 08:27:00,55.8,39.9,29.14,WNW,293,3.0,3.0,55,0.00,,,0.00,meteohub,2013-06-17 12:27:00,
2013-06-17 08:32:00,56.1,40.1,29.14,SW,225,1.0,3.0,55,0.00,,,0.00,meteohub,2013-06-17 12:32:00,
2013-06-17 08:37:00,56.5,40.5,29.14,NE,45,0.0,3.0,55,0.00,,,0.00,meteohub,2013-06-17 12:37:00,
2013-06-17 08:42:00,56.7,40.6,29.14,NE,45,0.0,3.0,55,0.00,,,0.00,meteohub,2013-06-17 12:42:00,
2013-06-17 08:47:00,57.0,41.0,29.14,WSW,248,2.0,2.0,55,0.00,,,0.00,meteohub,2013-06-17 12:47:00,
2013-06-17 08:53:00,57.4,41.4,29.14,SW,225,0.0,2.0,55,0.00,,,0.00,meteohub,2013-06-17 12:53:00,
2013-06-17 08:58:00,57.6,41.5,29.14,SW,225,2.0,2.0,55,0.00,,,0.00,meteohub,2013-06-17 12:58:00,
2013-06-17 09:03:00,57.7,41.7,29.14,SE,135,2.0,3.0,55,0.00,,,0.00,meteohub,2013-06-17 13:03:00,
2013-06-17 09:08:00,58.1,42.1,29.14,SSW,203,0.0,3.0,55,0.00,,,0.00,meteohub,2013-06-17 13:08:00,
2013-06-17 09:13:00,58.6,42.4,29.14,SW,225,0.0,3.0,55,0.00,,,0.00,meteohub,2013-06-17 13:13:00,
2013-06-17 09:18:00,59.0,42.8,29.14,North,0,0.0,2.0,55,0.00,,,0.00,meteohub,2013-06-17 13:18:00,
2013-06-17 09:23:00,59.5,43.3,29.14,WSW,248,4.0,5.0,55,0.00,,,0.00,meteohub,2013-06-17 13:23:00,
2013-06-17 09:28:00,60.1,43.9,29.14,WNW,293,0.0,5.0,55,0.00,,,0.00,meteohub,2013-06-17 13:28:00,
2013-06-17 09:33:00,60.3,45.0,29.14,WSW,248,0.0,5.0,57,0.00,,,0.00,meteohub,2013-06-17 13:33:00,
2013-06-17 09:38:00,60.8,45.9,29.14,NW,315,3.0,6.0,58,0.00,,,0.00,meteohub,2013-06-17 13:38:00,
2013-06-17 09:43:00,61.0,46.0,29.14,NE,45,4.0,6.0,58,0.00,,,0.00,meteohub,2013-06-17 13:43:00,
2013-06-17 09:48:00,61.5,48.0,29.14,WSW,248,4.0,4.0,61,0.00,,,0.00,meteohub,2013-06-17 13:48:00,
2013-06-17 09:53:00,61.7,48.2,29.14,WNW,293,2.0,5.0,61,0.00,,,0.00,meteohub,2013-06-17 13:53:00,
2013-06-17 09:58:00,62.1,48.4,29.14,WSW,248,0.0,5.0,61,0.00,,,0.00,meteohub,2013-06-17 13:58:00,
2013-06-17 10:03:00,61.9,48.7,29.14,WSW,248,4.0,5.0,62,0.00,,,0.00,meteohub,2013-06-17 14:03:00,
2013-06-17 10:08:00,62.1,48.9,29.14,South,180,2.0,4.0,62,0.00,,,0.00,meteohub,2013-06-17 14:08:00,
2013-06-17 10:13:00,62.1,48.9,29.14,NE,45,3.0,4.0,62,0.00,,,0.00,meteohub,2013-06-17 14:13:00,
2013-06-17 10:18:00,62.1,49.3,29.14,North,0,2.0,4.0,63,0.00,,,0.00,meteohub,2013-06-17 14:18:00,
2013-06-17 10:23:00,62.1,49.3,29.14,WNW,293,0.0,3.0,63,0.00,,,0.00,meteohub,2013-06-17 14:23:00,
2013-06-17 10:28:00,62.4,49.3,29.14,WNW,293,0.0,3.0,62,0.00,,,0.00,meteohub,2013-06-17 14:28:00,
2013-06-17 10:33:00,62.8,49.6,29.14,SSW,203,0.0,3.0,62,0.00,,,0.00,meteohub,2013-06-17 14:33:00,
2013-06-17 10:38:00,62.8,50.0,29.14,ENE,68,3.0,3.0,63,0.00,,,0.00,meteohub,2013-06-17 14:38:00,
2013-06-17 10:43:00,62.6,49.8,29.14,NNE,23,2.0,3.0,63,0.00,,,0.00,meteohub,2013-06-17 14:43:00,
2013-06-17 10:48:00,62.2,49.5,29.14,NE,45,2.0,3.0,63,0.00,,,0.00,meteohub,2013-06-17 14:48:00,
2013-06-17 10:53:00,62.1,49.3,29.14,WNW,293,2.0,3.0,63,0.00,,,0.00,meteohub,2013-06-17 14:53:00,
2013-06-17 10:58:00,62.2,49.5,29.14,NNE,23,0.0,3.0,63,0.00,,,0.00,meteohub,2013-06-17 14:58:00,
2013-06-17 11:03:00,62.1,49.3,29.14,NE,45,0.0,3.0,63,0.00,,,0.00,meteohub,2013-06-17 15:03:00,
2013-06-17 11:08:00,61.9,49.1,29.14,NE,45,4.0,4.0,63,0.00,,,0.00,meteohub,2013-06-17 15:08:00,
2013-06-17 11:13:00,61.7,48.9,29.14,NE,45,4.0,4.0,63,0.00,,,0.00,meteohub,2013-06-17 15:13:00,
2013-06-17 11:18:00,61.3,48.2,29.14,NNE,23,4.0,4.0,62,0.00,,,0.00,meteohub,2013-06-17 15:18:00,
2013-06-17 11:23:00,61.5,48.7,29.14,NNE,23,3.0,4.0,63,0.00,,,0.00,meteohub,2013-06-17 15:23:00,
2013-06-17 11:28:00,61.3,48.6,29.14,NNE,23,3.0,4.0,63,0.00,,,0.00,meteohub,2013-06-17 15:28:00,
2013-06-17 11:33:00,61.3,48.2,29.14,NNE,23,4.0,6.0,62,0.00,,,0.00,meteohub,2013-06-17 15:33:00,
2013-06-17 11:38:00,61.3,48.2,29.14,NNE,23,1.0,6.0,62,0.00,,,0.00,meteohub,2013-06-17 15:38:00,
2013-06-17 11:43:00,61.7,48.9,29.14,NNE,23,4.0,6.0,63,0.00,,,0.00,meteohub,2013-06-17 15:43:00,
2013-06-17 11:48:00,61.7,48.9,29.14,North,0,2.0,5.0,63,0.00,,,0.00,meteohub,2013-06-17 15:48:00,
2013-06-17 11:53:00,62.2,49.5,29.14,WNW,293,2.0,5.0,63,0.00,,,0.00,meteohub,2013-06-17 15:53:00,
2013-06-17 11:58:00,62.8,50.0,29.14,NNE,23,7.0,7.0,63,0.00,,,0.00,meteohub,2013-06-17 15:58:00,
2013-06-17 12:03:00,63.0,50.2,29.14,NNE,23,5.0,7.0,63,0.00,,,0.00,meteohub,2013-06-17 16:03:00,
2013-06-17 12:08:00,63.0,50.2,29.14,NNE,23,5.0,7.0,63,0.00,,,0.00,meteohub,2013-06-17 16:08:00,
2013-06-17 12:13:00,63.1,50.4,29.14,NNE,23,7.0,7.0,63,0.00,,,0.00,meteohub,2013-06-17 16:13:00,
2013-06-17 12:18:00,63.1,50.4,29.14,NNE,23,6.0,7.0,63,0.00,,,0.00,meteohub,2013-06-17 16:18:00,
2013-06-17 12:23:00,63.3,50.5,29.14,North,0,7.0,7.0,63,0.00,,,0.00,meteohub,2013-06-17 16:23:00,
2013-06-17 12:28:00,63.5,50.7,29.14,NE,45,4.0,7.0,63,0.00,,,0.00,meteohub,2013-06-17 16:28:00,
2013-06-17 12:33:00,63.9,51.1,29.14,NE,45,4.0,7.0,63,0.00,,,0.00,meteohub,2013-06-17 16:33:00,
2013-06-17 12:39:00,64.0,51.3,29.14,NE,45,4.0,7.0,63,0.00,,,0.00,meteohub,2013-06-17 16:39:00,
2013-06-17 12:44:00,63.9,51.4,29.14,NE,45,7.0,7.0,64,0.00,,,0.00,meteohub,2013-06-17 16:44:00,
2013-06-17 12:49:00,63.9,51.1,29.14,East,90,5.0,7.0,63,0.00,,,0.00,meteohub,2013-06-17 16:49:00,
2013-06-17 12:54:00,64.6,51.6,29.14,East,90,2.0,7.0,63,0.00,,,0.00,meteohub,2013-06-17 16:54:00,
2013-06-17 12:59:00,65.3,52.3,29.14,NNE,23,3.0,7.0,63,0.00,,,0.00,meteohub,2013-06-17 16:59:00,
2013-06-17 13:04:00,65.7,53.2,29.14,NW,315,2.0,7.0,64,0.00,,,0.00,meteohub,2013-06-17 17:04:00,
2013-06-17 13:09:00,66.7,53.8,29.14,ESE,113,2.0,4.0,63,0.00,,,0.00,meteohub,2013-06-17 17:09:00,
2013-06-17 13:14:00,67.5,54.9,29.14,North,0,2.0,4.0,64,0.00,,,0.00,meteohub,2013-06-17 17:14:00,
2013-06-17 13:19:00,67.3,55.0,29.14,NNE,23,3.0,4.0,65,0.00,,,0.00,meteohub,2013-06-17 17:19:00,
2013-06-17 13:24:00,67.1,54.5,29.14,NE,45,2.0,4.0,64,0.00,,,0.00,meteohub,2013-06-17 17:24:00,
2013-06-17 13:29:00,67.3,55.0,29.14,NE,45,5.0,5.0,65,0.00,,,0.00,meteohub,2013-06-17 17:29:00,
2013-06-17 13:34:00,67.1,54.9,29.14,East,90,5.0,5.0,65,0.00,,,0.00,meteohub,2013-06-17 17:34:00,
2013-06-17 13:39:00,67.6,55.0,29.14,SW,225,2.0,5.0,64,0.00,,,0.00,meteohub,2013-06-17 17:39:00,
2013-06-17 13:44:00,68.2,55.9,29.14,ESE,113,3.0,6.0,65,0.00,,,0.00,meteohub,2013-06-17 17:44:00,
2013-06-17 13:49:00,68.5,56.3,29.14,WNW,293,2.0,6.0,65,0.00,,,0.00,meteohub,2013-06-17 17:49:00,
2013-06-17 13:54:00,68.7,56.5,29.14,NNE,23,4.0,6.0,65,0.00,,,0.00,meteohub,2013-06-17 17:54:00,
2013-06-17 13:59:00,68.2,55.9,29.14,WNW,293,3.0,7.0,65,0.00,,,0.00,meteohub,2013-06-17 17:59:00,
2013-06-17 14:04:00,68.7,56.5,29.14,NE,45,3.0,8.0,65,0.00,,,0.00,meteohub,2013-06-17 18:04:00,
2013-06-17 14:09:00,68.7,56.5,29.14,NW,315,4.0,8.0,65,0.00,,,0.00,meteohub,2013-06-17 18:09:00,
2013-06-17 14:14:00,68.9,56.7,29.14,North,0,0.0,8.0,65,0.00,,,0.00,meteohub,2013-06-17 18:14:00,
2013-06-17 14:19:00,68.9,56.7,29.14,SE,135,2.0,5.0,65,0.00,,,0.00,meteohub,2013-06-17 18:19:00,
2013-06-17 14:24:00,68.5,56.3,29.14,SSE,158,4.0,5.0,65,0.00,,,0.00,meteohub,2013-06-17 18:24:00,
2013-06-17 14:29:00,67.8,55.6,29.14,NW,315,2.0,7.0,65,0.00,,,0.00,meteohub,2013-06-17 18:29:00,
2013-06-17 14:34:00,67.5,55.2,29.14,ENE,68,2.0,7.0,65,0.00,,,0.00,meteohub,2013-06-17 18:34:00,
2013-06-17 14:39:00,67.1,54.9,29.14,NNE,23,5.0,5.0,65,0.00,,,0.00,meteohub,2013-06-17 18:39:00,
2013-06-17 14:44:00,66.7,54.7,29.14,NNE,23,7.0,7.0,65,0.00,,,0.00,meteohub,2013-06-17 18:44:00,
2013-06-17 14:49:00,66.2,54.1,29.14,NNE,23,4.0,5.0,65,0.00,,,0.00,meteohub,2013-06-17 18:49:00,
2013-06-17 14:54:00,66.0,54.0,29.14,WSW,248,2.0,7.0,65,0.00,,,0.00,meteohub,2013-06-17 18:54:00,
2013-06-17 14:59:00,66.7,54.1,29.14,NE,45,2.0,7.0,64,0.00,,,0.00,meteohub,2013-06-17 18:59:00,
2013-06-17 15:05:00,67.3,55.0,29.14,ESE,113,2.0,7.0,65,0.00,,,0.00,meteohub,2013-06-17 19:05:00,
2013-06-17 15:10:00,67.1,54.9,29.14,SW,225,4.0,5.0,65,0.00,,,0.00,meteohub,2013-06-17 19:10:00,
2013-06-17 15:15:00,66.9,54.9,29.14,WNW,293,2.0,6.0,65,0.00,,,0.00,meteohub,2013-06-17 19:15:00,
2013-06-17 15:20:00,66.7,54.7,29.14,NE,45,3.0,6.0,65,0.00,,,0.00,meteohub,2013-06-17 19:20:00,
2013-06-17 15:25:00,66.6,54.5,29.14,ENE,68,1.0,6.0,65,0.00,,,0.00,meteohub,2013-06-17 19:25:00,
2013-06-17 15:30:00,66.7,54.7,29.14,NE,45,7.0,7.0,65,0.00,,,0.00,meteohub,2013-06-17 19:30:00,
2013-06-17 15:35:00,66.0,54.0,29.14,NE,45,4.0,7.0,65,0.00,,,0.00,meteohub,2013-06-17 19:35:00,
2013-06-17 15:40:00,65.7,53.6,29.14,ENE,68,3.0,7.0,65,0.00,,,0.00,meteohub,2013-06-17 19:40:00,
2013-06-17 15:45:00,65.5,53.4,29.14,SSW,203,3.0,7.0,65,0.00,,,0.00,meteohub,2013-06-17 19:45:00,
2013-06-17 15:50:00,65.3,53.2,29.14,NE,45,9.0,9.0,65,0.00,,,0.00,meteohub,2013-06-17 19:50:00,
2013-06-17 15:55:00,65.3,53.2,29.14,WNW,293,2.0,9.0,65,0.00,,,0.00,meteohub,2013-06-17 19:55:00,
2013-06-17 16:00:00,65.5,53.4,29.14,ENE,68,2.0,9.0,65,0.00,,,0.00,meteohub,2013-06-17 20:00:00,
2013-06-17 16:05:00,65.5,53.4,29.14,NE,45,4.0,9.0,65,0.00,,,0.00,meteohub,2013-06-17 20:05:00,
2013-06-17 16:10:00,65.3,53.2,29.14,NE,45,6.0,6.0,65,0.00,,,0.00,meteohub,2013-06-17 20:10:00,
2013-06-17 16:15:00,64.8,52.7,29.14,North,0,2.0,5.0,65,0.00,,,0.00,meteohub,2013-06-17 20:15:00,
2013-06-17 16:20:00,64.8,52.7,29.14,NE,45,4.0,6.0,65,0.00,,,0.00,meteohub,2013-06-17 20:20:00,
2013-06-17 16:25:00,64.6,52.5,29.14,ENE,68,4.0,6.0,65,0.00,,,0.00,meteohub,2013-06-17 20:25:00,
2013-06-17 16:30:00,64.4,52.9,29.14,ESE,113,0.0,6.0,66,0.00,,,0.00,meteohub,2013-06-17 20:30:00,
2013-06-17 16:35:00,64.2,52.7,29.14,NNE,23,2.0,6.0,66,0.00,,,0.00,meteohub,2013-06-17 20:35:00,
2013-06-17 16:40:00,63.9,52.3,29.14,NNE,23,6.0,6.0,66,0.00,,,0.00,meteohub,2013-06-17 20:40:00,
2013-06-17 16:45:00,63.5,51.4,29.14,NE,45,2.0,6.0,65,0.00,,,0.00,meteohub,2013-06-17 20:45:00,
2013-06-17 16:50:00,63.5,52.0,29.14,NNE,23,3.0,6.0,66,0.00,,,0.00,meteohub,2013-06-17 20:50:00,
2013-06-17 16:55:00,63.1,51.6,29.14,East,90,1.0,6.0,66,0.00,,,0.00,meteohub,2013-06-17 20:55:00,
2013-06-17 17:00:00,63.1,51.6,29.14,North,0,3.0,5.0,66,0.00,,,0.00,meteohub,2013-06-17 21:00:00,
2013-06-17 17:05:00,63.0,51.4,29.14,NNE,23,3.0,4.0,66,0.00,,,0.00,meteohub,2013-06-17 21:05:00,
2013-06-17 17:10:00,62.8,51.3,29.14,NNE,23,6.0,6.0,66,0.00,,,0.00,meteohub,2013-06-17 21:10:00,
2013-06-17 17:15:00,62.4,50.9,29.14,NNE,23,5.0,6.0,66,0.00,,,0.00,meteohub,2013-06-17 21:15:00,
2013-06-17 17:20:00,62.2,50.7,29.14,NE,45,3.0,8.0,66,0.00,,,0.00,meteohub,2013-06-17 21:20:00,
2013-06-17 17:25:00,62.2,50.7,29.14,NE,45,2.0,8.0,66,0.00,,,0.00,meteohub,2013-06-17 21:25:00,
2013-06-17 17:30:00,62.1,50.5,29.14,NNE,23,4.0,6.0,66,0.00,,,0.00,meteohub,2013-06-17 21:30:00,
2013-06-17 17:35:00,62.1,50.5,29.14,East,90,3.0,6.0,66,0.00,,,0.00,meteohub,2013-06-17 21:35:00,
2013-06-17 17:40:00,61.9,50.4,29.14,NE,45,3.0,4.0,66,0.00,,,0.00,meteohub,2013-06-17 21:40:00,
2013-06-17 17:45:00,61.7,50.2,29.14,NE,45,6.0,6.0,66,0.00,,,0.00,meteohub,2013-06-17 21:45:00,
2013-06-17 17:50:00,61.3,49.8,29.14,NE,45,6.0,8.0,66,0.00,,,0.00,meteohub,2013-06-17 21:50:00,
2013-06-17 17:55:00,61.0,49.5,29.14,NE,45,0.0,8.0,66,0.00,,,0.00,meteohub,2013-06-17 21:55:00,
2013-06-17 18:00:00,61.0,49.5,29.14,NE,45,6.0,8.0,66,0.00,,,0.00,meteohub,2013-06-17 22:00:00,
2013-06-17 18:05:00,60.4,49.1,29.14,NNE,23,8.0,8.0,66,0.00,,,0.00,meteohub,2013-06-17 22:05:00,
2013-06-17 18:10:00,59.9,48.6,29.14,NE,45,7.0,7.0,66,0.00,,,0.00,meteohub,2013-06-17 22:10:00,
2013-06-17 18:15:00,59.4,48.0,29.14,NE,45,3.0,8.0,66,0.00,,,0.00,meteohub,2013-06-17 22:15:00,
2013-06-17 18:20:00,59.0,47.3,29.14,NNE,23,9.0,9.0,65,0.00,,,0.00,meteohub,2013-06-17 22:20:00,
2013-06-17 18:25:00,59.0,47.3,29.14,NNE,23,8.0,8.0,65,0.00,,,0.00,meteohub,2013-06-17 22:25:00,
2013-06-17 18:30:00,59.0,47.3,29.14,NNE,23,6.0,7.0,65,0.00,,,0.00,meteohub,2013-06-17 22:30:00,
2013-06-17 18:35:00,59.0,47.3,29.14,NE,45,8.0,10.0,65,0.00,,,0.00,meteohub,2013-06-17 22:35:00,
2013-06-17 18:40:00,59.0,47.3,29.14,NE,45,6.0,10.0,65,0.00,,,0.00,meteohub,2013-06-17 22:40:00,
2013-06-17 18:45:00,59.0,47.3,29.14,NNE,23,5.0,8.0,65,0.00,,,0.00,meteohub,2013-06-17 22:45:00,
2013-06-17 18:50:00,59.0,47.3,29.14,NNE,23,4.0,8.0,65,0.00,,,0.00,meteohub,2013-06-17 22:50:00,
2013-06-17 18:56:00,59.0,47.3,29.14,NE,45,3.0,8.0,65,0.00,,,0.00,meteohub,2013-06-17 22:56:00,
2013-06-17 19:01:00,59.0,47.3,29.14,NE,45,6.0,6.0,65,0.00,,,0.00,meteohub,2013-06-17 23:01:00,
2013-06-17 19:06:00,59.0,47.3,29.14,NNE,23,6.0,6.0,65,0.00,,,0.00,meteohub,2013-06-17 23:06:00,
2013-06-17 19:11:00,59.0,47.7,29.14,SSE,158,8.0,8.0,66,0.00,,,0.00,meteohub,2013-06-17 23:11:00,
2013-06-17 19:16:00,59.0,47.7,29.14,NNE,23,10.0,10.0,66,0.00,,,0.00,meteohub,2013-06-17 23:16:00,
2013-06-17 19:21:00,59.0,48.0,29.14,NNE,23,7.0,17.0,67,0.00,,,0.00,meteohub,2013-06-17 23:21:00,
2013-06-17 19:26:00,59.0,48.0,29.14,NNE,23,5.0,17.0,67,0.00,,,0.00,meteohub,2013-06-17 23:26:00,
2013-06-17 19:31:00,59.0,48.0,29.14,NE,45,4.0,17.0,67,0.00,,,0.00,meteohub,2013-06-17 23:31:00,
2013-06-17 19:36:00,59.0,48.0,29.14,NNE,23,4.0,7.0,67,0.00,,,0.00,meteohub,2013-06-17 23:36:00,
2013-06-17 19:41:00,59.0,48.0,29.14,NNE,23,4.0,7.0,67,0.00,,,0.00,meteohub,2013-06-17 23:41:00,
2013-06-17 19:46:00,58.8,47.8,29.14,NE,45,4.0,7.0,67,0.00,,,0.00,meteohub,2013-06-17 23:46:00,
2013-06-17 19:51:00,59.0,48.0,29.14,NE,45,4.0,6.0,67,0.00,,,0.00,meteohub,2013-06-17 23:51:00,
2013-06-17 19:56:00,59.0,48.0,29.14,NNE,23,6.0,6.0,67,0.00,,,0.00,meteohub,2013-06-17 23:56:00,
2013-06-17 20:01:00,59.0,48.0,29.14,ENE,68,3.0,6.0,67,0.00,,,0.00,meteohub,2013-06-18 00:01:00,
2013-06-17 20:06:00,59.0,48.0,29.14,NNE,23,6.0,6.0,67,0.00,,,0.00,meteohub,2013-06-18 00:06:00,
2013-06-17 20:11:00,59.0,48.4,29.14,East,90,6.0,6.0,68,0.00,,,0.00,meteohub,2013-06-18 00:11:00,
2013-06-17 20:16:00,59.0,48.4,29.14,NE,45,2.0,6.0,68,0.00,,,0.00,meteohub,2013-06-18 00:16:00,
2013-06-17 20:21:00,59.0,48.4,29.14,ESE,113,4.0,6.0,68,0.00,,,0.00,meteohub,2013-06-18 00:21:00,
2013-06-17 20:26:00,59.0,48.4,29.14,NE,45,5.0,6.0,68,0.00,,,0.00,meteohub,2013-06-18 00:26:00,
2013-06-17 20:31:00,59.0,48.4,29.14,NE,45,4.0,6.0,68,0.00,,,0.00,meteohub,2013-06-18 00:31:00,
2013-06-17 20:36:00,59.0,48.4,29.14,NE,45,2.0,5.0,68,0.00,,,0.00,meteohub,2013-06-18 00:36:00,
2013-06-17 20:41:00,59.0,48.4,29.14,East,90,2.0,5.0,68,0.00,,,0.00,meteohub,2013-06-18 00:41:00,
2013-06-17 20:46:00,58.8,48.2,29.14,NE,45,4.0,5.0,68,0.00,,,0.00,meteohub,2013-06-18 00:46:00,
2013-06-17 20:51:00,58.5,48.0,29.14,NNE,23,4.0,5.0,68,0.00,,,0.00,meteohub,2013-06-18 00:51:00,
2013-06-17 20:56:00,58.3,47.8,29.14,East,90,3.0,5.0,68,0.00,,,0.00,meteohub,2013-06-18 00:56:00,
2013-06-17 21:01:00,58.1,47.7,29.14,NNE,23,5.0,5.0,68,0.00,,,0.00,meteohub,2013-06-18 01:01:00,
2013-06-17 21:06:00,57.7,47.3,29.14,WNW,293,2.0,5.0,68,0.00,,,0.00,meteohub,2013-06-18 01:06:00,
2013-06-17 21:11:00,57.6,47.1,29.14,ENE,68,3.0,5.0,68,0.00,,,0.00,meteohub,2013-06-18 01:11:00,
2013-06-17 21:16:00,57.4,46.9,29.14,NE,45,2.0,5.0,68,0.00,,,0.00,meteohub,2013-06-18 01:16:00,
2013-06-17 21:21:00,57.2,46.8,29.14,NE,45,2.0,5.0,68,0.00,,,0.00,meteohub,2013-06-18 01:21:00,
2013-06-17 21:26:00,57.0,46.6,29.14,ESE,113,0.0,3.0,68,0.00,,,0.00,meteohub,2013-06-18 01:26:00,
2013-06-17 21:31:00,56.8,46.0,29.14,NNE,23,0.0,3.0,67,0.00,,,0.00,meteohub,2013-06-18 01:31:00,
2013-06-17 21:36:00,56.7,45.9,29.14,NE,45,0.0,1.0,67,0.00,,,0.00,meteohub,2013-06-18 01:36:00,
2013-06-17 21:41:00,56.5,45.7,29.14,North,0,0.0,2.0,67,0.00,,,0.00,meteohub,2013-06-18 01:41:00,
2013-06-17 21:46:00,56.1,45.7,29.14,NE,45,0.0,2.0,68,0.00,,,0.00,meteohub,2013-06-18 01:46:00,
2013-06-17 21:51:00,55.6,45.1,29.14,WNW,293,0.0,0.0,68,0.00,,,0.00,meteohub,2013-06-18 01:51:00,
2013-06-17 21:56:00,55.4,45.0,29.14,WNW,293,0.0,0.0,68,0.00,,,0.00,meteohub,2013-06-18 01:56:00,
2013-06-17 22:01:00,55.0,44.6,29.14,NNW,338,0.0,0.0,68,0.00,,,0.00,meteohub,2013-06-18 02:01:00,
2013-06-17 22:06:00,54.7,44.2,29.14,North,0,0.0,0.0,68,0.00,,,0.00,meteohub,2013-06-18 02:06:00,
2013-06-17 22:11:00,54.5,44.2,29.14,WNW,293,0.0,0.0,68,0.00,,,0.00,meteohub,2013-06-18 02:11:00,
2013-06-17 22:16:00,54.3,44.1,29.14,WSW,248,0.0,0.0,68,0.00,,,0.00,meteohub,2013-06-18 02:16:00,
2013-06-17 22:21:00,54.1,43.9,29.14,NNE,23,0.0,0.0,68,0.00,,,0.00,meteohub,2013-06-18 02:21:00,
2013-06-17 22:26:00,53.8,43.5,29.14,NNE,23,0.0,0.0,68,0.00,,,0.00,meteohub,2013-06-18 02:26:00,
2013-06-17 22:32:00,53.6,43.3,29.14,North,0,0.0,0.0,68,0.00,,,0.00,meteohub,2013-06-18 02:32:00,
2013-06-17 22:37:00,53.4,43.2,29.14,NE,45,3.0,0.0,68,0.00,,,0.00,meteohub,2013-06-18 02:37:00,
2013-06-17 22:42:00,53.4,41.9,29.14,NNE,23,3.0,4.0,65,0.00,,,0.00,meteohub,2013-06-18 02:42:00,
2013-06-17 22:47:00,53.8,41.5,29.14,NE,45,3.0,4.0,63,0.00,,,0.00,meteohub,2013-06-18 02:47:00,
2013-06-17 22:52:00,54.0,41.7,29.14,NE,45,3.0,4.0,63,0.00,,,0.00,meteohub,2013-06-18 02:52:00,
2013-06-17 22:57:00,54.1,41.9,29.14,NNE,23,3.0,3.0,63,0.00,,,0.00,meteohub,2013-06-18 02:57:00,
2013-06-17 23:02:00,54.1,41.9,29.14,NE,45,4.0,4.0,63,0.00,,,0.00,meteohub,2013-06-18 03:02:00,
2013-06-17 23:07:00,54.3,42.1,29.14,NNE,23,3.0,4.0,63,0.00,,,0.00,meteohub,2013-06-18 03:07:00,
2013-06-17 23:12:00,54.3,42.1,29.14,NE,45,2.0,4.0,63,0.00,,,0.00,meteohub,2013-06-18 03:12:00,
2013-06-17 23:17:00,54.3,42.1,29.14,NE,45,3.0,4.0,63,0.00,,,0.00,meteohub,2013-06-18 03:17:00,
2013-06-17 23:22:00,54.1,41.9,29.14,NNE,23,3.0,4.0,63,0.00,,,0.00,meteohub,2013-06-18 03:22:00,
2013-06-17 23:27:00,54.0,41.7,29.14,NNE,23,4.0,5.0,63,0.00,,,0.00,meteohub,2013-06-18 03:27:00,
2013-06-17 23:32:00,53.8,41.5,29.14,NE,45,4.0,5.0,63,0.00,,,0.00,meteohub,2013-06-18 03:32:00,
2013-06-17 23:37:00,53.8,41.5,29.14,NE,45,3.0,5.0,63,0.00,,,0.00,meteohub,2013-06-18 03:37:00,
2013-06-17 23:42:00,53.8,41.5,29.14,NE,45,3.0,4.0,63,0.00,,,0.00,meteohub,2013-06-18 03:42:00,
2013-06-17 23:47:00,53.8,41.0,29.14,NE,45,4.0,4.0,62,0.00,,,0.00,meteohub,2013-06-18 03:47:00,
2013-06-17 23:52:00,53.8,41.0,29.14,NNE,23,3.0,4.0,62,0.00,,,0.00,meteohub,2013-06-18 03:52:00,
2013-06-17 23:57:00,53.8,41.0,29.14,NE,45,2.0,4.0,62,0.00,,,0.00,meteohub,2013-06-18 03:57:00,